createdAt,value
2022-10-19T00:01:15.580Z,2.08
2022-10-19T00:03:44.430Z,2.08
2022-10-19T00:06:26.501Z,1.85
2022-10-19T00:09:05.882Z,1.98
2022-10-19T00:11:35.182Z,1.98
2022-10-19T00:14:02.593Z,2.55
2022-10-19T00:16:33.794Z,2.03
2022-10-19T00:19:05.705Z,1.80
2022-10-19T00:21:32.681Z,2.20
2022-10-19T00:23:59.584Z,2.20
2022-10-19T00:26:28.166Z,2.30
2022-10-19T00:28:56.426Z,2.17
2022-10-19T00:31:23.949Z,2.10
2022-10-19T00:33:51.388Z,2.35
2022-10-19T00:36:24.410Z,2.03
2022-10-19T00:38:52.546Z,2.17
2022-10-19T00:41:22.122Z,2.05
2022-10-19T00:43:51.855Z,1.95
2022-10-19T00:46:18.789Z,2.90
2022-10-19T00:48:45.956Z,2.28
2022-10-19T00:51:13.829Z,2.20
2022-10-19T00:53:42.054Z,2.53
2022-10-19T00:56:14.212Z,2.40
2022-10-19T00:58:43.730Z,1.92
2022-10-19T01:01:16.537Z,1.95
2022-10-19T01:03:45.234Z,2.25
2022-10-19T01:06:15.959Z,2.05
2022-10-19T01:08:42.820Z,2.47
2022-10-19T01:11:43.417Z,2.53
2022-10-19T01:14:28.711Z,1.70
2022-10-19T01:17:38.581Z,2.10
2022-10-19T01:20:41.786Z,1.70
2022-10-19T01:23:36.293Z,2.40
2022-10-19T01:26:11.861Z,2.60
2022-10-19T01:29:08.521Z,2.50
2022-10-19T01:31:50.261Z,1.80
2022-10-19T01:34:26.092Z,2.38
2022-10-19T01:37:33.679Z,2.15
2022-10-19T01:40:08.048Z,1.80
2022-10-19T01:42:57.345Z,1.58
2022-10-19T01:45:39.593Z,2.28
2022-10-19T01:48:32.394Z,2.40
2022-10-19T01:51:11.042Z,2.63
2022-10-19T01:53:49.248Z,2.08
2022-10-19T01:56:21.829Z,2.15
2022-10-19T01:58:51.698Z,1.98
2022-10-19T02:01:23.745Z,1.85
2022-10-19T02:03:53.573Z,2.35
2022-10-19T02:06:22.066Z,2.33
2022-10-19T02:08:52.885Z,2.35
2022-10-19T02:14:10.191Z,1.83
2022-10-19T02:16:58.000Z,2.50
2022-10-19T02:21:57.760Z,2.35
2022-10-19T02:24:25.042Z,2.88
2022-10-19T02:26:54.017Z,3.33
2022-10-19T02:29:21.316Z,4.00
2022-10-19T02:31:51.320Z,4.50
2022-10-19T02:34:18.416Z,3.63
2022-10-19T02:36:45.488Z,4.28
2022-10-19T02:39:12.378Z,5.07
2022-10-19T02:42:04.176Z,4.10
2022-10-19T02:45:00.144Z,4.22
2022-10-19T02:47:49.382Z,4.63
2022-10-19T02:50:19.227Z,4.90
2022-10-19T02:52:46.052Z,4.22
2022-10-19T02:55:12.911Z,4.35
2022-10-19T02:57:39.749Z,4.60
2022-10-19T03:00:08.764Z,4.50
2022-10-19T03:02:35.735Z,4.45
2022-10-19T03:05:03.922Z,4.72
2022-10-19T03:07:30.806Z,3.90
2022-10-19T03:09:57.844Z,3.92
2022-10-19T03:12:24.690Z,4.78
2022-10-19T03:14:51.540Z,5.18
2022-10-19T03:17:18.395Z,4.95
2022-10-19T03:19:46.351Z,4.88
2022-10-19T03:22:14.946Z,5.35
2022-10-19T03:24:41.770Z,4.78
2022-10-19T03:27:08.723Z,5.18
2022-10-19T03:29:35.532Z,4.95
2022-10-19T03:32:02.447Z,4.80
2022-10-19T03:34:29.323Z,4.95
2022-10-19T03:36:56.782Z,5.65
2022-10-19T03:39:23.575Z,6.25
2022-10-19T03:41:50.580Z,5.30
2022-10-19T03:44:17.420Z,5.90
2022-10-19T03:46:44.240Z,6.25
2022-10-19T03:49:12.045Z,6.30
2022-10-19T03:51:38.934Z,5.85
2022-10-19T03:54:11.980Z,5.75
2022-10-19T03:56:39.264Z,6.93
2022-10-19T03:59:07.226Z,5.72
2022-10-19T04:01:38.770Z,5.75
2022-10-19T04:04:11.774Z,6.50
2022-10-19T04:06:43.999Z,6.07
2022-10-19T04:09:16.294Z,6.18
2022-10-19T04:11:43.778Z,5.63
2022-10-19T04:14:19.241Z,6.53
2022-10-19T04:16:53.995Z,6.35
2022-10-19T04:19:20.852Z,7.13
2022-10-19T04:21:49.694Z,7.45
2022-10-19T04:24:18.981Z,6.43
2022-10-19T04:26:56.787Z,6.60
2022-10-19T04:29:29.512Z,6.55
2022-10-19T04:31:57.685Z,6.38
2022-10-19T04:34:24.543Z,6.15
2022-10-19T04:36:53.257Z,5.93
2022-10-19T04:39:20.029Z,5.93
2022-10-19T04:41:46.804Z,5.63
2022-10-19T04:44:13.791Z,5.32
2022-10-19T04:46:40.689Z,5.50
2022-10-19T04:49:07.739Z,5.40
2022-10-19T04:51:35.316Z,5.45
2022-10-19T04:54:04.469Z,6.03
2022-10-19T04:56:32.404Z,5.88
2022-10-19T04:59:00.835Z,5.18
2022-10-19T05:01:30.285Z,5.03
2022-10-19T05:04:01.007Z,5.28
2022-10-19T05:08:56.310Z,5.07
2022-10-19T05:11:23.793Z,5.80
2022-10-19T05:13:51.116Z,5.47
2022-10-19T05:16:21.572Z,6.03
2022-10-19T05:18:56.719Z,5.45
2022-10-19T05:21:23.733Z,6.68
2022-10-19T05:23:55.473Z,7.88
2022-10-19T05:26:25.815Z,7.47
2022-10-19T05:28:56.852Z,6.93
2022-10-19T05:31:28.041Z,7.35
2022-10-19T05:36:38.087Z,5.97
2022-10-19T05:39:17.511Z,6.70
2022-10-19T05:41:46.607Z,5.95
2022-10-19T05:44:22.818Z,8.43
2022-10-19T05:46:51.445Z,7.47
2022-10-19T05:49:22.451Z,7.05
2022-10-19T05:51:49.984Z,7.40
2022-10-19T05:54:17.370Z,7.43
2022-10-19T05:56:45.327Z,7.18
2022-10-19T05:59:18.760Z,7.25
2022-10-19T06:01:47.207Z,7.72
2022-10-19T06:04:15.119Z,9.75
2022-10-19T06:06:43.066Z,7.65
2022-10-19T06:09:10.829Z,8.25
2022-10-19T06:11:41.546Z,8.93
2022-10-19T06:14:13.512Z,7.35
2022-10-19T06:16:41.213Z,8.02
2022-10-19T06:19:08.310Z,8.10
2022-10-19T06:21:35.456Z,8.30
2022-10-19T06:24:05.784Z,8.40
2022-10-19T06:26:35.747Z,8.77
2022-10-19T06:29:03.856Z,7.97
2022-10-19T06:31:36.502Z,8.02
2022-10-19T06:34:04.129Z,8.30
2022-10-19T06:36:32.336Z,8.93
2022-10-19T06:39:01.630Z,7.47
2022-10-19T06:41:30.662Z,7.93
2022-10-19T06:43:57.755Z,7.88
2022-10-19T06:46:27.065Z,7.70
2022-10-19T06:48:57.869Z,8.30
2022-10-19T06:53:57.129Z,6.05
2022-10-19T06:56:26.686Z,7.55
2022-10-19T06:58:54.547Z,9.43
2022-10-19T07:01:22.111Z,8.85
2022-10-19T07:03:54.149Z,9.85
2022-10-19T07:06:21.646Z,8.70
2022-10-19T07:08:49.324Z,9.52
2022-10-19T07:11:19.866Z,9.70
2022-10-19T07:13:46.721Z,9.27
2022-10-19T07:16:21.235Z,9.40
2022-10-19T07:18:51.692Z,8.60
2022-10-19T07:21:20.689Z,7.50
2022-10-19T07:23:48.364Z,8.65
2022-10-19T07:26:23.667Z,7.85
2022-10-19T07:28:51.443Z,9.43
2022-10-19T07:31:22.366Z,9.40
2022-10-19T07:33:58.796Z,10.18
2022-10-19T07:36:28.354Z,9.30
2022-10-19T07:38:55.672Z,9.63
2022-10-19T07:41:24.976Z,9.50
2022-10-19T07:43:53.266Z,10.13
2022-10-19T07:46:29.002Z,9.77
2022-10-19T07:48:56.048Z,9.27
2022-10-19T07:51:23.361Z,10.68
2022-10-19T07:53:50.365Z,9.98
2022-10-19T07:56:24.158Z,10.48
2022-10-19T07:58:53.620Z,11.23
2022-10-19T08:01:24.251Z,10.38
2022-10-19T08:06:41.039Z,9.57
2022-10-19T08:09:07.994Z,10.32
2022-10-19T08:11:36.538Z,10.57
2022-10-19T08:14:04.196Z,9.88
2022-10-19T08:16:40.355Z,9.20
2022-10-19T08:19:13.213Z,10.18
2022-10-19T08:21:45.008Z,10.80
2022-10-19T08:24:15.949Z,10.63
2022-10-19T08:26:43.404Z,10.15
2022-10-19T08:29:21.167Z,10.13
2022-10-19T08:31:49.614Z,10.63
2022-10-19T08:34:16.924Z,10.85
2022-10-19T08:36:44.420Z,10.30
2022-10-19T08:39:16.324Z,11.38
2022-10-19T08:41:43.166Z,10.85
2022-10-19T08:44:59.425Z,10.60
2022-10-19T08:48:04.441Z,9.38
2022-10-19T09:12:07.760Z,10.02
2022-10-19T09:15:06.940Z,9.73
2022-10-19T09:17:34.633Z,8.82
2022-10-19T09:20:20.430Z,8.18
2022-10-19T09:23:15.506Z,7.68
2022-10-19T09:25:42.552Z,7.03
2022-10-19T09:28:53.749Z,6.93
2022-10-19T09:31:39.580Z,8.70
2022-10-19T09:34:22.900Z,6.50
2022-10-19T09:36:57.310Z,7.35
2022-10-19T09:39:29.498Z,7.85
2022-10-19T09:41:57.782Z,7.00
2022-10-19T09:44:26.770Z,7.90
2022-10-19T09:47:28.599Z,7.10
2022-10-19T09:50:23.362Z,6.60
2022-10-19T09:52:56.577Z,7.47
2022-10-19T09:55:27.007Z,5.90
2022-10-19T09:58:06.125Z,5.65
2022-10-19T10:00:42.713Z,6.70
2022-10-19T10:03:22.923Z,6.35
2022-10-19T10:05:50.514Z,5.55
2022-10-19T10:08:25.753Z,5.68
2022-10-19T10:11:07.837Z,6.97
2022-10-19T10:14:09.117Z,7.50
2022-10-19T10:16:37.006Z,6.75
2022-10-19T10:19:10.687Z,7.75
2022-10-19T10:21:55.553Z,8.00
2022-10-19T10:24:29.478Z,6.90
2022-10-19T10:27:05.116Z,7.25
2022-10-19T10:29:39.223Z,7.88
2022-10-19T10:32:19.350Z,7.32
2022-10-19T10:34:57.282Z,7.55
2022-10-19T10:37:47.397Z,6.97
2022-10-19T10:40:30.921Z,6.68
2022-10-19T10:43:15.557Z,6.50
2022-10-19T10:45:48.248Z,6.63
2022-10-19T10:48:24.870Z,7.35
2022-10-19T10:50:52.935Z,7.32
2022-10-19T10:53:41.131Z,7.15
2022-10-19T10:56:25.089Z,7.45
2022-10-19T10:59:06.391Z,7.13
2022-10-19T11:01:52.900Z,6.55
2022-10-19T11:04:28.538Z,5.95
2022-10-19T11:07:18.588Z,6.68
2022-10-19T11:09:54.460Z,6.30
2022-10-19T11:12:51.546Z,7.38
2022-10-19T11:15:33.531Z,7.30
2022-10-19T11:18:27.564Z,6.60
2022-10-19T11:21:17.153Z,7.07
2022-10-19T11:24:13.385Z,6.78
2022-10-19T11:27:24.693Z,6.60
2022-10-19T11:30:16.954Z,6.82
2022-10-19T11:33:25.531Z,7.10
2022-10-19T11:35:59.145Z,5.78
2022-10-19T11:38:36.497Z,5.88
2022-10-19T11:41:20.114Z,4.97
2022-10-19T11:44:14.365Z,5.03
2022-10-19T11:47:15.576Z,4.72
2022-10-19T11:49:57.331Z,4.28
2022-10-19T11:53:03.923Z,4.20
2022-10-19T11:56:03.344Z,3.65
2022-10-19T11:58:35.383Z,3.50
2022-10-19T12:01:52.651Z,3.65
2022-10-19T12:04:35.836Z,2.90
2022-10-19T12:07:48.949Z,2.90
2022-10-19T12:10:42.814Z,2.50
2022-10-19T12:13:18.671Z,2.33
2022-10-19T12:15:50.858Z,2.58
2022-10-19T12:18:35.771Z,2.85
2022-10-19T12:21:11.860Z,2.75
2022-10-19T12:23:46.616Z,2.35
2022-10-19T12:26:19.820Z,3.28
2022-10-19T12:29:06.085Z,3.08
2022-10-19T12:31:33.630Z,3.28
2022-10-19T12:34:25.607Z,2.70
2022-10-19T12:37:07.564Z,2.88
2022-10-19T12:39:56.117Z,2.67
2022-10-19T12:42:53.755Z,3.67
2022-10-19T12:45:49.362Z,3.83
2022-10-19T12:48:20.365Z,3.42
2022-10-19T12:50:50.344Z,4.63
2022-10-19T12:53:36.412Z,4.00
2022-10-19T12:56:25.321Z,4.03
2022-10-19T12:59:01.376Z,3.58
2022-10-19T13:01:34.236Z,3.20
2022-10-19T13:04:32.644Z,4.05
2022-10-19T13:07:10.946Z,4.10
2022-10-19T13:09:43.833Z,4.10
2022-10-19T13:12:16.312Z,4.47
2022-10-19T13:14:52.541Z,3.85
2022-10-19T13:17:35.015Z,3.67
2022-10-19T13:20:14.188Z,4.03
2022-10-19T13:23:13.067Z,4.20
2022-10-19T13:25:41.728Z,3.92
2022-10-19T13:28:28.887Z,3.47
2022-10-19T13:31:05.877Z,2.78
2022-10-19T13:33:47.059Z,2.60
2022-10-19T13:36:14.486Z,2.33
2022-10-19T13:38:59.346Z,2.13
2022-10-19T13:41:49.994Z,1.90
2022-10-19T13:44:25.015Z,2.20
2022-10-19T13:47:10.024Z,2.10
2022-10-19T13:49:51.628Z,2.08
2022-10-19T13:52:36.057Z,2.20
2022-10-19T13:55:33.033Z,1.30
2022-10-19T13:58:41.512Z,1.50
2022-10-19T14:01:20.404Z,1.95
2022-10-19T14:04:05.843Z,2.10
2022-10-19T14:06:44.841Z,1.58
2022-10-19T14:09:50.089Z,1.90
2022-10-19T14:12:30.152Z,1.58
2022-10-19T14:14:58.174Z,1.52
2022-10-19T14:17:30.118Z,1.60
2022-10-19T14:19:59.922Z,1.35
2022-10-19T14:22:36.002Z,1.90
2022-10-19T14:25:21.008Z,1.33
2022-10-19T14:27:56.257Z,1.40
2022-10-19T14:30:29.417Z,1.55
2022-10-19T14:32:59.559Z,1.75
2022-10-19T14:35:34.265Z,1.88
2022-10-19T14:38:02.711Z,1.80
2022-10-19T14:40:33.191Z,1.75
2022-10-19T14:43:01.655Z,2.15
2022-10-19T14:45:32.766Z,1.70
2022-10-19T14:48:06.849Z,1.92
2022-10-19T14:50:49.760Z,1.90
2022-10-19T14:53:47.723Z,1.60
2022-10-19T14:56:18.912Z,2.25
2022-10-19T14:58:57.915Z,1.60
2022-10-19T15:01:25.245Z,1.90
2022-10-19T15:03:52.854Z,1.58
2022-10-19T15:06:26.259Z,1.40
2022-10-19T15:09:15.378Z,1.23
2022-10-19T15:11:53.525Z,1.48
2022-10-19T15:14:30.147Z,1.70
2022-10-19T15:17:21.054Z,1.88
2022-10-19T15:19:48.033Z,2.10
2022-10-19T15:22:32.201Z,1.73
2022-10-19T15:25:06.361Z,1.75
2022-10-19T15:27:47.131Z,1.58
2022-10-19T15:30:22.473Z,1.60
2022-10-19T15:33:02.228Z,1.55
2022-10-19T15:35:33.534Z,1.60
2022-10-19T15:38:20.464Z,1.52
2022-10-19T15:40:48.373Z,1.95
2022-10-19T15:43:39.222Z,1.58
2022-10-19T15:46:31.065Z,1.60
2022-10-19T15:49:19.339Z,1.77
2022-10-19T15:51:48.229Z,1.42
2022-10-19T15:54:18.898Z,1.95
2022-10-19T15:59:21.182Z,1.27
2022-10-19T16:01:53.713Z,1.70
2022-10-19T16:04:22.786Z,1.70
2022-10-19T16:06:49.583Z,1.58
2022-10-19T16:09:21.233Z,1.60
2022-10-19T16:12:01.148Z,1.50
2022-10-19T16:14:28.596Z,2.10
2022-10-19T16:16:59.359Z,1.40
2022-10-19T16:19:26.204Z,1.63
2022-10-19T16:21:53.056Z,1.73
2022-10-19T16:24:19.968Z,1.40
2022-10-19T16:26:46.780Z,1.85
2022-10-19T16:29:13.602Z,1.90
2022-10-19T16:31:40.566Z,2.15
2022-10-19T16:34:07.431Z,2.70
2022-10-19T16:36:34.245Z,2.70
2022-10-19T16:39:01.274Z,3.13
2022-10-19T16:41:28.241Z,2.50
2022-10-19T16:43:57.227Z,2.70
2022-10-19T16:46:26.999Z,2.70
2022-10-19T16:48:55.392Z,3.13
2022-10-19T16:51:38.792Z,2.63
2022-10-19T16:54:09.134Z,2.50
2022-10-19T16:56:37.214Z,3.03
2022-10-19T16:59:06.697Z,2.97
2022-10-19T17:01:35.115Z,3.22
2022-10-19T17:04:02.151Z,2.78
2022-10-19T17:06:29.346Z,3.33
2022-10-19T17:11:45.380Z,2.70
2022-10-19T17:14:13.167Z,3.30
2022-10-19T17:16:40.778Z,2.88
2022-10-19T17:19:09.033Z,3.85
2022-10-19T17:21:38.647Z,4.18
2022-10-19T17:24:08.851Z,4.50
2022-10-19T17:26:39.998Z,4.32
2022-10-19T17:29:07.079Z,4.43
2022-10-19T17:31:35.711Z,4.40
2022-10-19T17:34:03.401Z,3.55
2022-10-19T17:36:34.171Z,3.03
2022-10-19T17:41:36.441Z,2.83
2022-10-19T17:44:04.912Z,2.55
2022-10-19T17:46:34.578Z,2.47
2022-10-19T17:49:02.143Z,3.25
2022-10-19T17:51:32.818Z,4.13
2022-10-19T17:54:07.596Z,3.15
2022-10-19T17:56:36.245Z,5.90
2022-10-19T17:59:04.256Z,4.40
2022-10-19T18:01:31.667Z,3.25
2022-10-19T18:03:58.765Z,2.72
2022-10-19T18:06:31.388Z,4.43
2022-10-19T18:09:00.440Z,3.55
2022-10-19T18:11:36.844Z,2.70
2022-10-19T18:14:05.233Z,4.22
2022-10-19T18:16:45.262Z,4.60
2022-10-19T18:19:16.926Z,2.93
2022-10-19T18:21:46.907Z,2.90
2022-10-19T18:24:19.775Z,2.10
2022-10-19T18:26:50.667Z,2.30
2022-10-19T18:31:52.459Z,1.98
2022-10-19T18:34:25.980Z,2.17
2022-10-19T18:36:54.366Z,2.80
2022-10-19T18:39:21.787Z,2.60
2022-10-19T18:41:55.156Z,2.33
2022-10-19T18:44:26.308Z,2.85
2022-10-19T18:46:54.282Z,2.63
2022-10-19T18:49:21.156Z,2.25
2022-10-19T18:51:54.210Z,2.55
2022-10-19T18:54:23.057Z,2.15
2022-10-19T18:56:49.834Z,2.40
2022-10-19T18:59:16.905Z,2.50
2022-10-19T19:01:43.902Z,2.50
2022-10-19T19:04:11.009Z,2.35
2022-10-19T19:06:38.804Z,2.45
2022-10-19T19:09:11.923Z,2.15
2022-10-19T19:11:41.056Z,2.10
2022-10-19T19:14:16.465Z,2.40
2022-10-19T19:16:45.197Z,2.53
2022-10-19T19:19:15.491Z,2.65
2022-10-19T19:21:44.510Z,2.90
2022-10-19T19:24:21.705Z,2.33
2022-10-19T19:26:52.745Z,2.38
2022-10-19T19:29:21.235Z,3.05
2022-10-19T19:31:48.536Z,3.08
2022-10-19T19:34:15.523Z,2.53
2022-10-19T19:36:47.372Z,2.47
2022-10-19T19:39:18.820Z,2.78
2022-10-19T19:41:46.231Z,2.17
2022-10-19T19:44:13.027Z,3.15
2022-10-19T19:46:39.857Z,3.17
2022-10-19T19:49:06.750Z,3.13
2022-10-19T19:51:33.883Z,2.72
2022-10-19T19:54:01.007Z,3.10
2022-10-19T19:56:28.993Z,2.70
2022-10-19T19:58:59.445Z,2.92
2022-10-19T20:01:27.011Z,2.80
2022-10-19T20:03:54.652Z,2.70
2022-10-19T20:06:25.065Z,2.67
2022-10-19T20:08:54.365Z,2.67
2022-10-19T20:11:21.945Z,2.67
2022-10-19T20:13:49.503Z,2.97
2022-10-19T20:16:23.812Z,3.10
2022-10-19T20:19:04.979Z,2.97
2022-10-19T20:21:33.503Z,2.88
2022-10-19T20:24:00.378Z,3.40
2022-10-19T20:26:28.355Z,2.65
2022-10-19T20:28:56.078Z,2.35
2022-10-19T20:31:23.977Z,2.70
2022-10-19T20:33:50.966Z,3.35
2022-10-19T20:36:24.549Z,2.55
2022-10-19T20:38:55.109Z,3.00
2022-10-19T20:41:25.490Z,2.90
2022-10-19T20:43:53.774Z,2.90
2022-10-19T20:46:24.690Z,3.25
2022-10-19T20:51:30.663Z,2.42
2022-10-19T20:54:02.471Z,2.75
2022-10-19T20:56:33.662Z,2.95
2022-10-19T20:59:22.899Z,3.22
2022-10-19T21:01:51.698Z,3.45
2022-10-19T21:04:19.205Z,3.40
2022-10-19T21:06:49.077Z,3.58
2022-10-19T21:09:20.830Z,3.72
2022-10-19T21:11:50.246Z,3.80
2022-10-19T21:14:26.935Z,4.10
2022-10-19T21:16:59.972Z,3.60
2022-10-19T21:19:29.688Z,3.47
2022-10-19T21:22:03.379Z,3.45
2022-10-19T21:24:36.648Z,3.92
2022-10-19T21:27:07.612Z,3.97
2022-10-19T21:29:35.952Z,4.00
2022-10-19T21:32:03.380Z,3.45
2022-10-19T21:34:32.023Z,4.28
2022-10-19T21:36:59.490Z,3.92
2022-10-19T21:39:26.364Z,4.05
2022-10-19T21:41:53.419Z,4.00
2022-10-19T21:44:22.929Z,4.35
2022-10-19T21:46:50.585Z,3.72
2022-10-19T21:49:18.018Z,3.45
2022-10-19T21:51:51.983Z,4.55
2022-10-19T21:54:25.157Z,4.93
2022-10-19T21:56:53.325Z,4.32
2022-10-19T21:59:20.323Z,3.75
2022-10-19T22:01:47.302Z,4.40
2022-10-19T22:04:18.728Z,3.85
2022-10-19T22:06:46.413Z,3.72
2022-10-19T22:09:17.957Z,3.75
2022-10-19T22:11:45.679Z,3.60
2022-10-19T22:14:14.811Z,4.00
2022-10-19T22:16:42.496Z,4.60
2022-10-19T22:19:10.140Z,3.60
2022-10-19T22:24:09.859Z,3.92
2022-10-19T22:26:41.551Z,4.28
2022-10-19T22:29:09.045Z,4.18
2022-10-19T22:31:37.563Z,3.80
2022-10-19T22:34:09.716Z,3.88
2022-10-19T22:36:36.924Z,4.65
2022-10-19T22:39:04.915Z,4.53
2022-10-19T22:41:31.681Z,4.97
2022-10-19T22:43:58.535Z,4.25
2022-10-19T22:46:25.277Z,5.47
2022-10-19T22:48:52.044Z,4.68
2022-10-19T22:51:18.832Z,4.82
2022-10-19T22:53:45.629Z,4.95
2022-10-19T22:56:13.509Z,5.95
2022-10-19T22:58:40.410Z,5.20
2022-10-19T23:01:11.587Z,5.05
2022-10-19T23:03:40.256Z,5.80
2022-10-19T23:06:10.510Z,5.30
2022-10-19T23:08:37.980Z,5.10
2022-10-19T23:11:05.382Z,6.15
2022-10-19T23:13:32.459Z,5.53
2022-10-19T23:15:59.294Z,6.50
2022-10-19T23:18:26.222Z,6.25
2022-10-19T23:20:59.097Z,6.93
2022-10-19T23:23:27.318Z,6.43
2022-10-19T23:26:11.330Z,6.80
2022-10-19T23:28:41.365Z,6.90
2022-10-19T23:31:16.539Z,6.90
2022-10-19T23:33:44.829Z,7.72
2022-10-19T23:36:17.140Z,6.85
2022-10-19T23:38:48.482Z,7.40
2022-10-19T23:41:16.250Z,7.75
2022-10-19T23:43:43.227Z,7.63
2022-10-19T23:46:10.323Z,7.65
2022-10-19T23:48:37.435Z,7.95
2022-10-19T23:51:12.302Z,8.02
2022-10-19T23:53:43.410Z,7.05
2022-10-19T23:56:26.070Z,8.45
2022-10-19T23:58:54.271Z,8.30
